createdAt,value
2017-07-19T00:01:34.528Z,89.10
2017-07-19T00:04:02.895Z,88.40
2017-07-19T00:06:31.300Z,88.40
2017-07-19T00:08:59.585Z,88.80
2017-07-19T00:11:27.960Z,89.40
2017-07-19T00:13:56.238Z,89.00
2017-07-19T00:16:24.548Z,89.00
2017-07-19T00:18:52.868Z,89.20
2017-07-19T00:21:21.956Z,89.00
2017-07-19T00:23:50.268Z,89.60
2017-07-19T00:26:19.353Z,90.00
2017-07-19T00:28:47.635Z,90.00
2017-07-19T00:31:16.031Z,90.50
2017-07-19T00:33:44.323Z,90.50
2017-07-19T00:36:12.636Z,90.20
2017-07-19T00:38:41.729Z,90.00
2017-07-19T00:41:10.011Z,90.00
2017-07-19T00:43:38.336Z,90.10
2017-07-19T00:46:07.379Z,90.00
2017-07-19T00:48:35.720Z,89.90
2017-07-19T00:51:04.820Z,90.30
2017-07-19T00:53:33.200Z,90.30
2017-07-19T00:56:01.506Z,90.10
2017-07-19T00:58:30.564Z,90.30
2017-07-19T01:00:58.867Z,90.30
2017-07-19T01:03:27.196Z,90.20
2017-07-19T01:05:56.234Z,90.30
2017-07-19T01:08:24.562Z,90.30
2017-07-19T01:10:52.847Z,90.60
2017-07-19T01:13:21.127Z,90.30
2017-07-19T01:15:49.545Z,90.20
2017-07-19T01:18:17.827Z,90.50
2017-07-19T01:20:46.161Z,90.50
2017-07-19T01:23:14.452Z,90.40
2017-07-19T01:25:42.780Z,90.50
2017-07-19T01:28:11.072Z,90.60
2017-07-19T01:30:39.351Z,90.50
2017-07-19T01:33:07.672Z,90.50
2017-07-19T01:35:36.723Z,90.40
2017-07-19T01:38:05.049Z,90.40
2017-07-19T01:40:33.456Z,90.50
2017-07-19T01:43:01.777Z,90.50
2017-07-19T01:45:30.823Z,90.20
2017-07-19T01:47:59.155Z,90.20
2017-07-19T01:50:28.217Z,90.50
2017-07-19T01:52:56.499Z,90.50
2017-07-19T01:55:24.838Z,90.40
2017-07-19T01:57:53.930Z,90.50
2017-07-19T02:00:22.221Z,90.40
2017-07-19T02:02:50.557Z,90.50
2017-07-19T02:05:18.855Z,90.60
2017-07-19T02:07:47.196Z,90.60
2017-07-19T02:10:15.562Z,90.60
2017-07-19T02:12:43.843Z,90.80
2017-07-19T02:15:12.266Z,90.70
2017-07-19T02:17:40.577Z,90.60
2017-07-19T02:20:09.636Z,90.90
2017-07-19T02:22:37.968Z,90.90
2017-07-19T02:25:06.247Z,91.00
2017-07-19T02:27:34.527Z,91.00
2017-07-19T02:32:37.560Z,91.00
2017-07-19T02:35:06.732Z,91.00
2017-07-19T02:37:35.010Z,90.80
2017-07-19T02:40:03.546Z,91.00
2017-07-19T02:42:31.845Z,91.00
2017-07-19T02:45:00.348Z,91.10
2017-07-19T02:47:28.722Z,90.90
2017-07-19T02:49:57.011Z,90.90
2017-07-19T02:52:25.407Z,90.90
2017-07-19T02:54:53.795Z,91.10
2017-07-19T02:57:22.075Z,91.10
2017-07-19T02:59:50.396Z,91.40
2017-07-19T03:02:19.582Z,91.70
2017-07-19T03:04:47.900Z,91.40
2017-07-19T03:07:16.219Z,91.60
2017-07-19T03:09:44.530Z,91.70
2017-07-19T03:12:12.831Z,91.80
2017-07-19T03:14:41.756Z,91.90
2017-07-19T03:17:10.080Z,92.00
2017-07-19T03:19:38.438Z,92.00
2017-07-19T03:22:08.552Z,92.40
2017-07-19T03:24:37.061Z,92.40
2017-07-19T03:27:05.458Z,92.50
2017-07-19T03:29:33.844Z,92.40
2017-07-19T03:32:02.189Z,92.50
2017-07-19T03:34:30.490Z,92.40
2017-07-19T03:36:58.775Z,92.30
2017-07-19T03:39:27.100Z,92.50
2017-07-19T03:41:55.499Z,92.40
2017-07-19T03:44:23.817Z,92.20
2017-07-19T03:46:52.099Z,92.20
2017-07-19T03:49:20.431Z,92.10
2017-07-19T03:51:48.857Z,92.30
2017-07-19T03:54:17.181Z,92.40
2017-07-19T03:56:45.509Z,92.00
2017-07-19T03:59:13.791Z,91.40
2017-07-19T04:01:42.113Z,90.60
2017-07-19T04:04:11.181Z,88.00
2017-07-19T04:06:39.505Z,88.00
2017-07-19T04:09:07.811Z,85.70
2017-07-19T04:11:36.894Z,83.10
2017-07-19T04:14:05.188Z,83.10
2017-07-19T04:16:33.500Z,82.30
2017-07-19T04:19:02.574Z,81.70
2017-07-19T04:21:30.858Z,80.70
2017-07-19T04:23:59.139Z,79.40
2017-07-19T04:26:27.446Z,78.40
2017-07-19T04:28:55.761Z,78.70
2017-07-19T04:31:24.853Z,79.10
2017-07-19T04:33:53.127Z,79.00
2017-07-19T04:36:21.439Z,79.40
2017-07-19T04:38:49.828Z,80.60
2017-07-19T04:41:18.099Z,81.40
2017-07-19T04:43:46.396Z,82.20
2017-07-19T04:46:14.778Z,81.80
2017-07-19T04:48:43.071Z,81.50
2017-07-19T04:51:11.472Z,82.60
2017-07-19T04:53:39.865Z,83.60
2017-07-19T04:56:08.152Z,85.20
2017-07-19T04:58:36.476Z,85.70
2017-07-19T05:01:04.836Z,86.00
2017-07-19T05:03:33.223Z,85.50
2017-07-19T05:06:01.545Z,85.30
2017-07-19T05:08:30.637Z,86.40
2017-07-19T05:10:59.729Z,85.40
2017-07-19T05:13:28.039Z,85.40
2017-07-19T05:15:57.115Z,84.90
2017-07-19T05:18:25.425Z,84.90
2017-07-19T05:20:54.527Z,85.10
2017-07-19T05:23:22.850Z,84.20
2017-07-19T05:25:51.191Z,84.70
2017-07-19T05:28:19.511Z,84.30
2017-07-19T05:30:48.554Z,85.20
2017-07-19T05:33:16.878Z,85.00
2017-07-19T05:35:45.197Z,83.60
2017-07-19T05:38:14.283Z,82.10
2017-07-19T05:40:42.617Z,82.10
2017-07-19T05:43:10.981Z,82.40
2017-07-19T05:45:40.080Z,82.40
2017-07-19T05:48:08.371Z,82.40
2017-07-19T05:50:36.691Z,82.30
2017-07-19T05:53:05.043Z,82.20
2017-07-19T05:55:33.324Z,82.50
2017-07-19T05:58:01.718Z,81.90
2017-07-19T06:00:30.007Z,81.20
2017-07-19T06:02:58.311Z,80.70
2017-07-19T06:05:27.400Z,79.80
2017-07-19T06:07:55.725Z,79.80
2017-07-19T06:10:24.786Z,80.20
2017-07-19T06:12:53.186Z,79.50
2017-07-19T06:15:21.582Z,78.90
2017-07-19T06:17:49.864Z,78.70
2017-07-19T06:20:18.271Z,79.40
2017-07-19T06:22:46.588Z,79.30
2017-07-19T06:25:15.644Z,78.30
2017-07-19T06:27:43.957Z,78.40
2017-07-19T06:30:12.307Z,77.10
2017-07-19T06:32:40.624Z,78.40
2017-07-19T06:35:08.902Z,77.50
2017-07-19T06:37:37.306Z,76.90
2017-07-19T06:40:05.591Z,78.60
2017-07-19T06:42:33.865Z,77.10
2017-07-19T06:45:02.289Z,77.10
2017-07-19T06:47:30.681Z,76.40
2017-07-19T06:49:58.980Z,75.40
2017-07-19T06:52:27.301Z,75.50
2017-07-19T06:54:55.612Z,76.00
2017-07-19T06:57:23.886Z,74.40
2017-07-19T06:59:52.208Z,73.10
2017-07-19T07:02:20.512Z,75.10
2017-07-19T07:04:48.787Z,74.40
2017-07-19T07:07:17.196Z,71.30
2017-07-19T07:09:45.589Z,69.20
2017-07-19T07:12:13.980Z,70.00
2017-07-19T07:14:42.287Z,69.30
2017-07-19T07:17:11.330Z,69.40
2017-07-19T07:19:39.750Z,69.40
2017-07-19T07:22:08.050Z,70.00
2017-07-19T07:24:36.336Z,68.80
2017-07-19T07:27:05.026Z,68.00
2017-07-19T07:29:33.315Z,67.90
2017-07-19T07:32:01.714Z,65.80
2017-07-19T07:34:30.107Z,67.90
2017-07-19T07:36:58.500Z,67.10
2017-07-19T07:39:26.792Z,66.10
2017-07-19T07:41:55.071Z,67.10
2017-07-19T07:44:23.394Z,66.40
2017-07-19T07:46:52.488Z,65.50
2017-07-19T07:49:20.819Z,65.40
2017-07-19T07:51:49.177Z,65.40
2017-07-19T07:54:18.271Z,62.20
2017-07-19T07:56:46.555Z,62.10
2017-07-19T07:59:14.947Z,60.80
2017-07-19T08:01:43.335Z,63.00
2017-07-19T08:04:11.615Z,61.90
2017-07-19T08:06:39.936Z,61.60
2017-07-19T08:09:08.251Z,60.20
2017-07-19T08:11:37.294Z,62.40
2017-07-19T08:14:05.690Z,62.30
2017-07-19T08:16:33.985Z,62.00
2017-07-19T08:19:02.498Z,62.10
2017-07-19T08:21:30.775Z,61.00
2017-07-19T08:23:59.068Z,61.10
2017-07-19T08:26:27.471Z,59.10
2017-07-19T08:28:55.871Z,59.60
2017-07-19T08:31:24.157Z,60.50
2017-07-19T08:33:52.479Z,60.00
2017-07-19T08:36:20.777Z,59.70
2017-07-19T08:38:49.092Z,59.60
2017-07-19T08:41:17.409Z,58.40
2017-07-19T08:43:45.744Z,60.50
2017-07-19T08:46:14.036Z,59.50
2017-07-19T08:48:42.318Z,58.30
2017-07-19T08:51:10.636Z,61.00
2017-07-19T08:53:38.921Z,60.00
2017-07-19T08:56:07.235Z,59.70
2017-07-19T08:58:35.527Z,60.00
2017-07-19T09:01:03.932Z,58.60
2017-07-19T09:03:32.245Z,58.80
2017-07-19T09:06:00.528Z,58.00
2017-07-19T09:08:29.712Z,56.80
2017-07-19T09:10:58.109Z,56.80
2017-07-19T09:13:26.397Z,58.10
2017-07-19T09:15:54.789Z,58.20
2017-07-19T09:18:23.112Z,57.80
2017-07-19T09:20:51.386Z,57.20
2017-07-19T09:23:20.476Z,55.00
2017-07-19T09:25:48.764Z,54.90
2017-07-19T09:28:17.152Z,56.90
2017-07-19T09:30:45.535Z,55.90
2017-07-19T09:33:13.836Z,55.50
2017-07-19T09:35:42.161Z,55.30
2017-07-19T09:38:10.512Z,55.10
2017-07-19T09:40:38.819Z,56.10
2017-07-19T09:43:07.912Z,54.80
2017-07-19T09:45:36.295Z,54.80
2017-07-19T09:48:04.575Z,55.10
2017-07-19T09:50:32.863Z,54.50
2017-07-19T09:53:01.171Z,54.00
2017-07-19T09:55:29.463Z,52.20
2017-07-19T09:57:57.788Z,54.20
2017-07-19T10:00:26.534Z,53.20
2017-07-19T10:02:54.813Z,51.80
2017-07-19T10:05:23.124Z,51.80
2017-07-19T10:07:51.446Z,52.70
2017-07-19T10:10:20.522Z,51.30
2017-07-19T10:12:48.837Z,51.40
2017-07-19T10:15:17.917Z,52.00
2017-07-19T10:17:46.302Z,52.00
2017-07-19T10:20:14.620Z,51.80
2017-07-19T10:22:43.662Z,50.80
2017-07-19T10:25:11.981Z,50.80
2017-07-19T10:27:40.385Z,51.40
2017-07-19T10:30:08.681Z,50.30
2017-07-19T10:32:36.965Z,49.40
2017-07-19T10:35:05.367Z,49.70
2017-07-19T10:37:33.686Z,50.00
2017-07-19T10:40:01.967Z,48.70
2017-07-19T10:42:30.292Z,49.70
2017-07-19T10:44:58.598Z,50.70
2017-07-19T10:47:26.875Z,50.30
2017-07-19T10:49:55.227Z,48.10
2017-07-19T10:52:23.512Z,48.60
2017-07-19T10:54:52.600Z,50.10
2017-07-19T10:57:20.923Z,50.20
2017-07-19T10:59:49.204Z,49.20
2017-07-19T11:02:17.551Z,47.50
2017-07-19T11:04:46.151Z,47.80
2017-07-19T11:07:14.426Z,48.10
2017-07-19T11:09:42.724Z,47.90
2017-07-19T11:12:11.036Z,46.80
2017-07-19T11:14:40.096Z,50.70
2017-07-19T11:17:08.425Z,50.20
2017-07-19T11:19:36.707Z,50.80
2017-07-19T11:22:05.391Z,48.80
2017-07-19T11:24:33.680Z,47.80
2017-07-19T11:27:01.987Z,46.60
2017-07-19T11:29:30.285Z,49.10
2017-07-19T11:31:58.591Z,47.70
2017-07-19T11:34:26.890Z,48.20
2017-07-19T11:36:55.250Z,49.30
2017-07-19T11:39:23.640Z,49.60
2017-07-19T11:41:51.959Z,49.20
2017-07-19T11:44:21.028Z,50.00
2017-07-19T11:46:49.486Z,50.00
2017-07-19T11:49:17.767Z,50.20
2017-07-19T11:51:46.072Z,50.50
2017-07-19T11:54:14.385Z,48.90
2017-07-19T11:56:42.724Z,50.10
2017-07-19T11:59:11.044Z,49.20
2017-07-19T12:01:39.359Z,51.00
2017-07-19T12:04:07.753Z,49.90
2017-07-19T12:06:36.067Z,49.70
2017-07-19T12:09:05.136Z,49.20
2017-07-19T12:11:33.452Z,49.20
2017-07-19T12:14:02.553Z,48.70
2017-07-19T12:16:30.940Z,48.40
2017-07-19T12:18:59.246Z,48.70
2017-07-19T12:21:28.332Z,46.80
2017-07-19T12:23:56.714Z,46.80
2017-07-19T12:26:25.003Z,47.60
2017-07-19T12:28:53.299Z,47.20
2017-07-19T12:31:21.696Z,48.70
2017-07-19T12:33:50.184Z,51.00
2017-07-19T12:36:18.463Z,48.70
2017-07-19T12:38:46.873Z,49.50
2017-07-19T12:41:15.257Z,49.00
2017-07-19T12:43:43.611Z,49.60
2017-07-19T12:46:11.919Z,49.60
2017-07-19T12:48:40.198Z,49.20
2017-07-19T12:51:08.607Z,48.00
2017-07-19T12:53:36.895Z,49.20
2017-07-19T12:56:05.191Z,49.30
2017-07-19T12:58:33.703Z,49.50
2017-07-19T13:01:01.990Z,48.00
2017-07-19T13:03:30.366Z,47.20
2017-07-19T13:05:58.750Z,48.10
2017-07-19T13:08:27.152Z,47.10
2017-07-19T13:10:55.458Z,46.90
2017-07-19T13:13:24.546Z,45.80
2017-07-19T13:15:52.916Z,45.60
2017-07-19T13:18:21.233Z,46.90
2017-07-19T13:20:49.548Z,46.50
2017-07-19T13:23:18.594Z,44.70
2017-07-19T13:25:47.011Z,44.70
2017-07-19T13:28:15.292Z,47.20
2017-07-19T13:30:43.709Z,47.90
2017-07-19T13:33:12.097Z,46.60
2017-07-19T13:35:40.480Z,46.10
2017-07-19T13:38:08.793Z,46.30
2017-07-19T13:40:37.844Z,45.50
2017-07-19T13:43:06.173Z,45.50
2017-07-19T13:45:34.447Z,45.50
2017-07-19T13:48:02.773Z,46.50
2017-07-19T13:50:31.966Z,48.40
2017-07-19T13:53:00.258Z,48.30
2017-07-19T13:55:28.627Z,48.10
2017-07-19T13:57:56.915Z,48.80
2017-07-19T14:00:25.232Z,48.00
2017-07-19T14:02:54.527Z,47.50
2017-07-19T14:05:22.820Z,46.80
2017-07-19T14:07:51.102Z,46.60
2017-07-19T14:10:19.407Z,47.40
2017-07-19T14:12:48.495Z,46.50
2017-07-19T14:15:16.779Z,45.80
2017-07-19T14:17:45.096Z,46.10
2017-07-19T14:20:14.181Z,46.00
2017-07-19T14:22:42.480Z,46.00
2017-07-19T14:25:10.801Z,45.60
2017-07-19T14:27:39.987Z,44.70
2017-07-19T14:30:08.302Z,44.70
2017-07-19T14:32:36.662Z,44.30
2017-07-19T14:35:05.241Z,44.00
2017-07-19T14:37:33.539Z,45.40
2017-07-19T14:40:01.819Z,44.70
2017-07-19T14:42:30.161Z,45.50
2017-07-19T14:44:59.287Z,45.10
2017-07-19T14:47:27.559Z,45.90
2017-07-19T14:49:55.904Z,46.70
2017-07-19T14:52:24.193Z,44.50
2017-07-19T14:54:52.476Z,44.20
2017-07-19T14:57:20.892Z,44.80
2017-07-19T14:59:49.167Z,43.20
2017-07-19T15:02:17.473Z,42.10
2017-07-19T15:04:46.574Z,39.90
2017-07-19T15:07:14.892Z,39.80
2017-07-19T15:09:43.212Z,40.00
2017-07-19T15:12:11.545Z,39.30
2017-07-19T15:14:40.015Z,39.60
2017-07-19T15:17:08.328Z,37.60
2017-07-19T15:19:36.820Z,34.90
2017-07-19T15:22:05.103Z,33.50
2017-07-19T15:24:33.381Z,31.50
2017-07-19T15:27:01.782Z,30.40
2017-07-19T15:29:30.172Z,30.70
2017-07-19T15:31:58.559Z,31.00
2017-07-19T15:34:26.870Z,30.10
2017-07-19T15:36:55.981Z,29.80
2017-07-19T15:39:25.067Z,31.50
2017-07-19T15:41:53.454Z,31.50
2017-07-19T15:44:21.806Z,30.90
2017-07-19T15:46:50.130Z,31.10
2017-07-19T15:49:18.416Z,31.20
2017-07-19T15:51:46.694Z,29.90
2017-07-19T15:54:15.013Z,29.20
2017-07-19T15:56:43.338Z,29.10
2017-07-19T15:59:11.617Z,29.50
2017-07-19T16:01:40.673Z,29.60
2017-07-19T16:04:09.000Z,30.00
2017-07-19T16:06:38.092Z,29.90
2017-07-19T16:09:06.486Z,29.50
2017-07-19T16:11:35.429Z,29.20
2017-07-19T16:14:03.908Z,30.10
2017-07-19T16:16:33.019Z,29.90
2017-07-19T16:19:02.105Z,31.30
2017-07-19T16:21:30.497Z,31.30
2017-07-19T16:23:58.840Z,30.40
2017-07-19T16:26:28.384Z,32.10
2017-07-19T16:28:56.695Z,33.00
2017-07-19T16:31:25.066Z,34.00
2017-07-19T16:33:53.371Z,35.90
2017-07-19T16:36:21.688Z,38.80
2017-07-19T16:38:50.057Z,39.70
2017-07-19T16:41:18.373Z,39.60
2017-07-19T16:43:46.712Z,37.40
2017-07-19T16:46:15.028Z,36.10
2017-07-19T16:48:44.233Z,34.60
2017-07-19T16:51:13.279Z,33.40
2017-07-19T16:53:41.620Z,32.50
2017-07-19T16:56:10.004Z,31.80
2017-07-19T16:58:38.400Z,30.50
2017-07-19T17:01:06.733Z,31.60
2017-07-19T17:03:35.089Z,33.40
2017-07-19T17:06:03.374Z,34.60
2017-07-19T17:08:31.766Z,37.20
2017-07-19T17:11:00.814Z,41.20
2017-07-19T17:13:29.119Z,41.20
2017-07-19T17:15:57.531Z,42.90
2017-07-19T17:18:25.828Z,43.90
2017-07-19T17:20:54.263Z,44.70
2017-07-19T17:23:22.615Z,45.40
2017-07-19T17:25:51.014Z,45.50
2017-07-19T17:28:19.575Z,46.60
2017-07-19T17:30:47.856Z,46.70
2017-07-19T17:33:16.152Z,47.20
2017-07-19T17:35:44.513Z,47.70
2017-07-19T17:38:12.862Z,48.00
2017-07-19T17:40:41.188Z,49.00
2017-07-19T17:43:10.493Z,49.30
2017-07-19T17:45:39.580Z,49.90
2017-07-19T17:48:07.863Z,50.00
2017-07-19T17:50:36.270Z,50.90
2017-07-19T17:53:04.589Z,50.80
2017-07-19T17:55:32.932Z,51.10
2017-07-19T17:58:01.258Z,51.60
2017-07-19T18:00:30.294Z,52.30
2017-07-19T18:02:58.716Z,52.30
2017-07-19T18:05:26.996Z,52.50
2017-07-19T18:07:55.294Z,52.80
2017-07-19T18:10:23.578Z,53.10
2017-07-19T18:12:51.909Z,53.50
2017-07-19T18:15:20.952Z,53.60
2017-07-19T18:17:49.270Z,53.40
2017-07-19T18:20:17.568Z,54.00
2017-07-19T18:22:45.884Z,54.50
2017-07-19T18:25:14.971Z,54.30
2017-07-19T18:27:43.302Z,54.30
2017-07-19T18:30:11.646Z,54.60
2017-07-19T18:32:40.533Z,54.70
2017-07-19T18:35:08.806Z,55.00
2017-07-19T18:37:37.219Z,55.60
2017-07-19T18:40:05.539Z,55.80
2017-07-19T18:42:34.627Z,56.20
2017-07-19T18:45:03.013Z,56.20
2017-07-19T18:47:31.292Z,56.30
2017-07-19T18:49:59.620Z,56.40
2017-07-19T18:52:28.809Z,57.10
2017-07-19T18:54:57.209Z,57.00
2017-07-19T18:57:25.653Z,57.60
2017-07-19T18:59:54.004Z,57.60
2017-07-19T19:02:23.353Z,58.00
2017-07-19T19:04:51.660Z,58.00
2017-07-19T19:07:19.963Z,58.20
2017-07-19T19:09:48.275Z,58.50
2017-07-19T19:12:17.323Z,59.00
2017-07-19T19:14:45.648Z,59.30
2017-07-19T19:17:13.924Z,59.50
2017-07-19T19:19:42.212Z,59.90
2017-07-19T19:22:11.559Z,59.50
2017-07-19T19:24:39.953Z,60.00
2017-07-19T19:27:08.227Z,60.00
2017-07-19T19:29:36.555Z,60.40
2017-07-19T19:32:04.911Z,61.00
2017-07-19T19:34:33.195Z,61.00
2017-07-19T19:37:01.504Z,60.50
2017-07-19T19:39:30.559Z,62.20
2017-07-19T19:41:58.889Z,62.00
2017-07-19T19:44:27.266Z,62.00
2017-07-19T19:46:55.549Z,62.40
2017-07-19T19:49:23.871Z,62.10
2017-07-19T19:51:52.156Z,62.40
2017-07-19T19:54:20.484Z,62.50
2017-07-19T19:56:48.806Z,63.00
2017-07-19T19:59:17.097Z,62.90
2017-07-19T20:01:45.419Z,63.00
2017-07-19T20:04:14.497Z,63.90
2017-07-19T20:06:42.805Z,63.80
2017-07-19T20:09:11.197Z,65.40
2017-07-19T20:11:39.519Z,64.70
2017-07-19T20:14:07.808Z,66.60
2017-07-19T20:16:36.131Z,66.10
2017-07-19T20:19:04.469Z,66.10
2017-07-19T20:21:32.939Z,66.90
2017-07-19T20:24:01.229Z,67.30
2017-07-19T20:26:29.518Z,67.10
2017-07-19T20:28:57.928Z,67.80
2017-07-19T20:31:26.982Z,69.80
2017-07-19T20:33:55.263Z,69.30
2017-07-19T20:36:23.608Z,69.10
2017-07-19T20:38:51.915Z,68.00
2017-07-19T20:41:21.024Z,67.50
2017-07-19T20:43:49.438Z,67.30
2017-07-19T20:46:17.759Z,68.20
2017-07-19T20:48:46.035Z,68.70
2017-07-19T20:51:14.410Z,68.60
2017-07-19T20:53:42.723Z,69.10
2017-07-19T20:56:11.292Z,69.90
2017-07-19T20:58:39.612Z,69.80
2017-07-19T21:01:08.023Z,70.10
2017-07-19T21:03:36.397Z,71.30
2017-07-19T21:06:04.720Z,71.60
2017-07-19T21:08:33.008Z,73.30
2017-07-19T21:11:02.113Z,74.80
2017-07-19T21:13:30.390Z,74.80
2017-07-19T21:15:58.684Z,75.10
2017-07-19T21:18:27.049Z,74.80
2017-07-19T21:20:55.364Z,75.40
2017-07-19T21:23:23.647Z,76.40
2017-07-19T21:25:52.009Z,75.90
2017-07-19T21:28:20.283Z,74.80
2017-07-19T21:30:48.563Z,75.70
2017-07-19T21:33:16.893Z,77.10
2017-07-19T21:35:45.392Z,75.60
2017-07-19T21:38:13.693Z,75.60
2017-07-19T21:40:41.993Z,75.60
2017-07-19T21:43:10.307Z,75.00
2017-07-19T21:45:38.592Z,75.10
2017-07-19T21:48:06.915Z,74.40
2017-07-19T21:50:35.199Z,74.40
2017-07-19T21:53:03.486Z,74.20
2017-07-19T21:55:31.816Z,74.10
2017-07-19T21:58:00.195Z,74.20
2017-07-19T22:00:28.483Z,74.20
2017-07-19T22:02:56.821Z,74.50
2017-07-19T22:05:25.168Z,74.50
2017-07-19T22:07:53.464Z,74.70
2017-07-19T22:10:21.817Z,74.70
2017-07-19T22:12:50.109Z,74.30
2017-07-19T22:15:18.426Z,74.60
2017-07-19T22:17:46.781Z,75.50
2017-07-19T22:20:15.063Z,75.50
2017-07-19T22:22:43.395Z,75.50
2017-07-19T22:25:11.796Z,75.50
2017-07-19T22:27:40.264Z,75.80
2017-07-19T22:30:08.581Z,75.30
2017-07-19T22:32:36.972Z,75.20
2017-07-19T22:35:05.308Z,75.20
2017-07-19T22:37:33.650Z,75.20
2017-07-19T22:40:02.026Z,75.50
2017-07-19T22:42:30.336Z,75.60
2017-07-19T22:44:58.624Z,75.00
2017-07-19T22:47:26.964Z,75.40
2017-07-19T22:49:55.264Z,75.70
2017-07-19T22:52:23.547Z,75.70
2017-07-19T22:54:51.865Z,75.60
2017-07-19T22:57:20.185Z,75.90
2017-07-19T22:59:49.328Z,76.10
2017-07-19T23:02:17.668Z,76.00
2017-07-19T23:04:46.047Z,76.50
2017-07-19T23:07:14.363Z,76.30
2017-07-19T23:09:43.455Z,76.20
2017-07-19T23:12:11.793Z,75.50
2017-07-19T23:14:40.132Z,75.70
2017-07-19T23:17:08.429Z,75.40
2017-07-19T23:19:36.736Z,75.20
2017-07-19T23:22:05.814Z,76.80
2017-07-19T23:24:34.137Z,76.80
2017-07-19T23:27:03.234Z,76.10
2017-07-19T23:29:32.279Z,76.00
2017-07-19T23:32:00.616Z,75.60
2017-07-19T23:34:29.099Z,74.60
2017-07-19T23:36:57.504Z,72.80
2017-07-19T23:39:25.887Z,72.10
2017-07-19T23:41:54.203Z,72.20
2017-07-19T23:44:23.254Z,71.80
2017-07-19T23:46:51.671Z,71.80
2017-07-19T23:49:19.964Z,72.00
2017-07-19T23:51:48.264Z,72.40
2017-07-19T23:54:16.575Z,72.60
2017-07-19T23:56:44.886Z,73.30
2017-07-19T23:59:13.295Z,73.20
